Bookmark and Share
Track history (hours):
 

Ryuoh Maru No.2

Last reported at 2014-Apr-09 15:23 UTC. Time now 2014-Apr-20 05:55 UTC.
Position N 35°49' E 140°56'.
Warning: this ship's position is 10 days out of date.

Length 80 m; draft 5.3 m.

Type: Cargo ship. MMSI: 431401218.

NotesDate/timePositionNaut miles runAvg speedWind from/ knotsBaromVisibWave heightAir tempDewpointWater temp
2014-Apr-09 15:23N 35°49' E 140°56'4110.4
2014-Apr-09 11:29N 35°14' E 140°31'1311.9
2014-Apr-09 10:22N 35°05' E 140°20'911.5
2014-Apr-09 09:33N 34°60' E 140°10'1110.9
2014-Apr-09 08:33N 34°54' E 139°59'10 9.3
2014-Apr-09 07:32N 34°53' E 139°47'10 9.7
2014-Apr-09 06:33N 35°02' E 139°44'1110.8
2014-Apr-09 05:33N 35°13' E 139°46'1110.5
2014-Apr-09 04:33N 35°23' E 139°42'6 6.1
2014-Apr-09 03:33N 35°22' E 139°50'1 0.9
2014-Apr-09 02:31N 35°22' E 139°51'0 0.0
2014-Apr-09 01:31N 35°22' E 139°51'0 0.0
2014-Apr-09 00:28N 35°22' E 139°51'0 0.0
2014-Apr-08 23:31N 35°22' E 139°51'0 0.0
2014-Apr-08 22:31N 35°22' E 139°51'0 0.0
2014-Apr-08 21:31N 35°22' E 139°51'0 0.0
2014-Apr-08 20:25N 35°22' E 139°51'0 0.0
2014-Apr-08 19:31N 35°22' E 139°51'0 0.0
2014-Apr-08 18:31N 35°22' E 139°51'0 0.0
2014-Apr-08 17:31N 35°22' E 139°51'0 0.0
2014-Apr-08 16:31N 35°22' E 139°51'0 0.0
2014-Apr-08 15:28N 35°22' E 139°51'0 0.0
2014-Apr-08 14:31N 35°22' E 139°51'0 0.0
2014-Apr-08 13:33N 35°22' E 139°51'4 4.0
2014-Apr-08 12:34N 35°23' E 139°46'9 9.4
2014-Apr-08 11:33N 35°14' E 139°47'1010.3
2014-Apr-08 10:34N 35°04' E 139°45'10 9.9
2014-Apr-08 09:33N 34°54' E 139°46'10 9.1
2014-Apr-08 08:29N 34°53' E 139°58'8 8.6
2014-Apr-08 07:33N 34°58' E 140°06'11 8.3
2014-Apr-08 06:16N 35°03' E 140°17'15 8.0
2014-Apr-08 04:25N 35°14' E 140°30'8 9.7
2014-Apr-08 03:33N 35°20' E 140°36'1010.3
2014-Apr-08 02:33N 35°28' E 140°45'1410.4
2014-Apr-08 01:12N 35°39' E 140°56'16 9.4
2014-Apr-07 23:31N 35°54' E 140°54'  

Dump ship's entire track history

sailing weather and tide predictions

Ryuoh Maru No.2 — JM5900 — position and weather